sensor_id;sensor_type;location;lat;lon;timestamp;P1;durP1;ratioP1;P2;durP2;ratioP2
78122;SDS011;67376;44.802;10.332;2023-06-22T00:01:04;124.43;;;60.38;;
78122;SDS011;67376;44.802;10.332;2023-06-22T00:03:30;124.72;;;60.58;;
78122;SDS011;67376;44.802;10.332;2023-06-22T00:05:55;123.47;;;60.42;;
78122;SDS011;67376;44.802;10.332;2023-06-22T00:08:21;122.40;;;60.45;;
78122;SDS011;67376;44.802;10.332;2023-06-22T00:10:47;122.93;;;60.83;;
78122;SDS011;67376;44.802;10.332;2023-06-22T00:13:12;122.32;;;60.15;;
78122;SDS011;67376;44.802;10.332;2023-06-22T00:15:39;122.93;;;60.40;;
78122;SDS011;67376;44.802;10.332;2023-06-22T00:18:06;122.45;;;60.50;;
78122;SDS011;67376;44.802;10.332;2023-06-22T00:20:32;122.90;;;60.67;;
78122;SDS011;67376;44.802;10.332;2023-06-22T00:23:02;122.88;;;60.28;;
78122;SDS011;67376;44.802;10.332;2023-06-22T00:25:33;123.47;;;60.50;;
78122;SDS011;67376;44.802;10.332;2023-06-22T00:27:59;122.60;;;59.90;;
78122;SDS011;67376;44.802;10.332;2023-06-22T00:30:25;123.68;;;60.50;;
78122;SDS011;67376;44.802;10.332;2023-06-22T00:32:50;122.97;;;60.45;;
78122;SDS011;67376;44.802;10.332;2023-06-22T00:35:15;123.15;;;60.35;;
78122;SDS011;67376;44.802;10.332;2023-06-22T00:37:41;123.20;;;60.45;;
78122;SDS011;67376;44.802;10.332;2023-06-22T00:40:07;123.97;;;60.63;;
78122;SDS011;67376;44.802;10.332;2023-06-22T00:42:40;123.20;;;60.03;;
78122;SDS011;67376;44.802;10.332;2023-06-22T00:45:06;123.95;;;60.30;;
78122;SDS011;67376;44.802;10.332;2023-06-22T00:47:33;124.03;;;60.10;;
78122;SDS011;67376;44.802;10.332;2023-06-22T00:50:00;124.18;;;60.42;;
78122;SDS011;67376;44.802;10.332;2023-06-22T00:52:25;124.93;;;60.58;;
78122;SDS011;67376;44.802;10.332;2023-06-22T00:54:54;124.55;;;60.30;;
78122;SDS011;67376;44.802;10.332;2023-06-22T00:57:21;124.88;;;60.63;;
78122;SDS011;67376;44.802;10.332;2023-06-22T00:59:53;124.68;;;60.13;;
78122;SDS011;67376;44.802;10.332;2023-06-22T01:02:19;124.93;;;59.83;;
78122;SDS011;67376;44.802;10.332;2023-06-22T01:04:44;125.75;;;60.35;;
78122;SDS011;67376;44.802;10.332;2023-06-22T01:09:56;125.60;;;60.15;;
78122;SDS011;67376;44.802;10.332;2023-06-22T01:12:32;125.45;;;59.97;;
78122;SDS011;67376;44.802;10.332;2023-06-22T01:15:10;125.53;;;60.17;;
78122;SDS011;67376;44.802;10.332;2023-06-22T01:17:46;126.18;;;60.58;;
78122;SDS011;67376;44.802;10.332;2023-06-22T01:20:13;125.60;;;59.67;;
78122;SDS011;67376;44.802;10.332;2023-06-22T01:25:47;125.80;;;60.00;;
78122;SDS011;67376;44.802;10.332;2023-06-22T01:31:06;125.88;;;60.22;;
78122;SDS011;67376;44.802;10.332;2023-06-22T01:33:35;125.57;;;59.90;;
78122;SDS011;67376;44.802;10.332;2023-06-22T01:36:02;125.22;;;59.53;;
78122;SDS011;67376;44.802;10.332;2023-06-22T01:38:30;125.75;;;59.70;;
78122;SDS011;67376;44.802;10.332;2023-06-22T01:41:00;125.80;;;60.13;;
78122;SDS011;67376;44.802;10.332;2023-06-22T01:43:26;126.05;;;60.13;;
78122;SDS011;67376;44.802;10.332;2023-06-22T01:45:53;125.78;;;60.15;;
78122;SDS011;67376;44.802;10.332;2023-06-22T01:48:20;125.45;;;59.83;;
78122;SDS011;67376;44.802;10.332;2023-06-22T01:50:46;125.57;;;59.78;;
78122;SDS011;67376;44.802;10.332;2023-06-22T01:53:12;125.55;;;59.72;;
78122;SDS011;67376;44.802;10.332;2023-06-22T01:55:37;125.53;;;59.58;;
78122;SDS011;67376;44.802;10.332;2023-06-22T01:58:03;125.88;;;59.58;;
78122;SDS011;67376;44.802;10.332;2023-06-22T02:00:28;125.35;;;59.65;;
78122;SDS011;67376;44.802;10.332;2023-06-22T02:05:29;125.88;;;59.75;;
78122;SDS011;67376;44.802;10.332;2023-06-22T02:10:32;125.13;;;59.50;;
78122;SDS011;67376;44.802;10.332;2023-06-22T02:13:01;125.40;;;59.60;;
78122;SDS011;67376;44.802;10.332;2023-06-22T02:15:29;125.45;;;60.15;;
78122;SDS011;67376;44.802;10.332;2023-06-22T02:17:56;125.47;;;59.90;;
78122;SDS011;67376;44.802;10.332;2023-06-22T02:20:21;125.32;;;59.88;;
78122;SDS011;67376;44.802;10.332;2023-06-22T02:22:49;125.75;;;60.22;;
78122;SDS011;67376;44.802;10.332;2023-06-22T02:25:14;125.70;;;60.47;;
78122;SDS011;67376;44.802;10.332;2023-06-22T02:27:40;126.18;;;60.75;;
78122;SDS011;67376;44.802;10.332;2023-06-22T02:30:06;125.43;;;60.13;;
78122;SDS011;67376;44.802;10.332;2023-06-22T02:32:34;125.20;;;60.38;;
78122;SDS011;67376;44.802;10.332;2023-06-22T02:35:00;125.13;;;60.25;;
78122;SDS011;67376;44.802;10.332;2023-06-22T02:37:29;124.60;;;60.00;;
78122;SDS011;67376;44.802;10.332;2023-06-22T02:39:55;124.10;;;59.75;;
78122;SDS011;67376;44.802;10.332;2023-06-22T02:42:20;124.90;;;60.60;;
78122;SDS011;67376;44.802;10.332;2023-06-22T02:44:46;124.55;;;60.22;;
78122;SDS011;67376;44.802;10.332;2023-06-22T02:47:12;124.60;;;60.22;;
78122;SDS011;67376;44.802;10.332;2023-06-22T02:49:37;125.05;;;61.13;;
78122;SDS011;67376;44.802;10.332;2023-06-22T02:52:03;124.05;;;60.63;;
78122;SDS011;67376;44.802;10.332;2023-06-22T02:54:29;124.72;;;61.05;;
78122;SDS011;67376;44.802;10.332;2023-06-22T02:56:54;123.32;;;59.92;;
78122;SDS011;67376;44.802;10.332;2023-06-22T02:59:19;123.57;;;60.50;;
78122;SDS011;67376;44.802;10.332;2023-06-22T03:01:49;122.88;;;59.83;;
78122;SDS011;67376;44.802;10.332;2023-06-22T03:04:15;123.32;;;60.65;;
78122;SDS011;67376;44.802;10.332;2023-06-22T03:06:40;122.00;;;59.70;;
78122;SDS011;67376;44.802;10.332;2023-06-22T03:09:06;122.45;;;60.35;;
78122;SDS011;67376;44.802;10.332;2023-06-22T03:11:32;123.25;;;60.80;;
78122;SDS011;67376;44.802;10.332;2023-06-22T03:13:58;123.00;;;60.70;;
78122;SDS011;67376;44.802;10.332;2023-06-22T03:16:24;122.07;;;60.28;;
78122;SDS011;67376;44.802;10.332;2023-06-22T03:18:50;122.45;;;60.75;;
78122;SDS011;67376;44.802;10.332;2023-06-22T03:21:16;121.90;;;60.55;;
78122;SDS011;67376;44.802;10.332;2023-06-22T03:23:42;122.05;;;60.60;;
78122;SDS011;67376;44.802;10.332;2023-06-22T03:26:10;121.68;;;60.47;;
78122;SDS011;67376;44.802;10.332;2023-06-22T03:28:36;121.25;;;60.20;;
78122;SDS011;67376;44.802;10.332;2023-06-22T03:31:03;121.57;;;60.65;;
78122;SDS011;67376;44.802;10.332;2023-06-22T03:33:29;120.57;;;60.42;;
78122;SDS011;67376;44.802;10.332;2023-06-22T03:35:54;120.63;;;60.55;;
78122;SDS011;67376;44.802;10.332;2023-06-22T03:38:20;120.03;;;60.10;;
78122;SDS011;67376;44.802;10.332;2023-06-22T03:40:45;120.82;;;60.63;;
78122;SDS011;67376;44.802;10.332;2023-06-22T03:43:11;120.35;;;61.00;;
78122;SDS011;67376;44.802;10.332;2023-06-22T03:45:36;119.90;;;60.35;;
78122;SDS011;67376;44.802;10.332;2023-06-22T03:48:02;119.22;;;60.22;;
78122;SDS011;67376;44.802;10.332;2023-06-22T03:50:28;119.28;;;60.78;;
78122;SDS011;67376;44.802;10.332;2023-06-22T03:52:54;120.07;;;61.00;;
78122;SDS011;67376;44.802;10.332;2023-06-22T03:55:20;119.68;;;60.85;;
78122;SDS011;67376;44.802;10.332;2023-06-22T03:57:45;119.70;;;61.15;;
78122;SDS011;67376;44.802;10.332;2023-06-22T04:00:11;118.72;;;60.17;;
78122;SDS011;67376;44.802;10.332;2023-06-22T04:02:37;118.55;;;60.38;;
78122;SDS011;67376;44.802;10.332;2023-06-22T04:05:02;119.07;;;61.10;;
78122;SDS011;67376;44.802;10.332;2023-06-22T04:07:28;118.40;;;60.92;;
78122;SDS011;67376;44.802;10.332;2023-06-22T04:09:53;118.75;;;61.30;;
78122;SDS011;67376;44.802;10.332;2023-06-22T04:12:18;117.93;;;60.70;;
78122;SDS011;67376;44.802;10.332;2023-06-22T04:14:44;117.88;;;60.88;;
78122;SDS011;67376;44.802;10.332;2023-06-22T04:17:09;118.25;;;61.83;;
78122;SDS011;67376;44.802;10.332;2023-06-22T04:19:34;116.95;;;60.65;;
78122;SDS011;67376;44.802;10.332;2023-06-22T04:22:00;117.47;;;61.28;;
78122;SDS011;67376;44.802;10.332;2023-06-22T04:24:25;117.40;;;60.92;;
78122;SDS011;67376;44.802;10.332;2023-06-22T04:26:50;117.00;;;60.90;;
78122;SDS011;67376;44.802;10.332;2023-06-22T04:29:19;116.72;;;60.78;;
78122;SDS011;67376;44.802;10.332;2023-06-22T04:31:46;117.03;;;61.35;;
78122;SDS011;67376;44.802;10.332;2023-06-22T04:34:15;116.38;;;60.70;;
78122;SDS011;67376;44.802;10.332;2023-06-22T04:36:42;117.07;;;61.55;;
78122;SDS011;67376;44.802;10.332;2023-06-22T04:39:10;116.68;;;61.33;;
78122;SDS011;67376;44.802;10.332;2023-06-22T04:41:36;116.22;;;60.67;;
78122;SDS011;67376;44.802;10.332;2023-06-22T04:46:37;115.10;;;60.38;;
78122;SDS011;67376;44.802;10.332;2023-06-22T04:49:04;114.65;;;60.17;;
78122;SDS011;67376;44.802;10.332;2023-06-22T04:51:44;114.22;;;60.08;;
78122;SDS011;67376;44.802;10.332;2023-06-22T04:54:09;114.15;;;59.97;;
78122;SDS011;67376;44.802;10.332;2023-06-22T04:56:35;115.18;;;60.97;;
78122;SDS011;67376;44.802;10.332;2023-06-22T04:59:01;114.53;;;60.88;;
78122;SDS011;67376;44.802;10.332;2023-06-22T05:01:28;114.13;;;60.60;;
78122;SDS011;67376;44.802;10.332;2023-06-22T05:03:56;114.32;;;61.08;;
78122;SDS011;67376;44.802;10.332;2023-06-22T05:06:24;113.18;;;60.50;;
78122;SDS011;67376;44.802;10.332;2023-06-22T05:08:53;113.25;;;61.00;;
78122;SDS011;67376;44.802;10.332;2023-06-22T05:11:26;112.97;;;60.45;;
78122;SDS011;67376;44.802;10.332;2023-06-22T05:13:52;112.40;;;60.35;;
78122;SDS011;67376;44.802;10.332;2023-06-22T05:16:18;112.55;;;60.67;;
78122;SDS011;67376;44.802;10.332;2023-06-22T05:18:48;112.68;;;60.70;;
78122;SDS011;67376;44.802;10.332;2023-06-22T05:21:14;112.07;;;60.53;;
78122;SDS011;67376;44.802;10.332;2023-06-22T05:23:39;112.03;;;60.47;;
78122;SDS011;67376;44.802;10.332;2023-06-22T05:26:05;113.43;;;59.93;;
78122;SDS011;67376;44.802;10.332;2023-06-22T05:28:30;114.95;;;60.80;;
78122;SDS011;67376;44.802;10.332;2023-06-22T05:30:56;114.80;;;61.20;;
78122;SDS011;67376;44.802;10.332;2023-06-22T05:33:21;113.68;;;61.15;;
78122;SDS011;67376;44.802;10.332;2023-06-22T05:35:46;110.93;;;60.05;;
78122;SDS011;67376;44.802;10.332;2023-06-22T05:38:12;109.18;;;60.15;;
78122;SDS011;67376;44.802;10.332;2023-06-22T05:40:37;107.78;;;60.05;;
78122;SDS011;67376;44.802;10.332;2023-06-22T05:43:02;107.22;;;60.20;;
78122;SDS011;67376;44.802;10.332;2023-06-22T05:45:28;107.55;;;61.03;;
78122;SDS011;67376;44.802;10.332;2023-06-22T05:47:53;106.07;;;59.78;;
78122;SDS011;67376;44.802;10.332;2023-06-22T05:50:18;106.70;;;60.05;;
78122;SDS011;67376;44.802;10.332;2023-06-22T05:52:44;106.85;;;60.13;;
78122;SDS011;67376;44.802;10.332;2023-06-22T05:55:09;106.18;;;60.10;;
78122;SDS011;67376;44.802;10.332;2023-06-22T05:57:34;106.10;;;59.95;;
78122;SDS011;67376;44.802;10.332;2023-06-22T06:00:00;106.30;;;60.53;;
78122;SDS011;67376;44.802;10.332;2023-06-22T06:02:25;106.35;;;60.72;;
78122;SDS011;67376;44.802;10.332;2023-06-22T06:04:51;105.00;;;59.47;;
78122;SDS011;67376;44.802;10.332;2023-06-22T06:07:17;104.63;;;59.65;;
78122;SDS011;67376;44.802;10.332;2023-06-22T06:09:43;104.50;;;59.92;;
78122;SDS011;67376;44.802;10.332;2023-06-22T06:12:08;104.95;;;60.47;;
78122;SDS011;67376;44.802;10.332;2023-06-22T06:14:34;104.43;;;59.85;;
78122;SDS011;67376;44.802;10.332;2023-06-22T06:16:59;103.47;;;59.00;;
78122;SDS011;67376;44.802;10.332;2023-06-22T06:19:25;104.00;;;59.35;;
78122;SDS011;67376;44.802;10.332;2023-06-22T06:21:50;103.97;;;59.45;;
78122;SDS011;67376;44.802;10.332;2023-06-22T06:24:16;103.18;;;59.13;;
78122;SDS011;67376;44.802;10.332;2023-06-22T06:26:41;103.00;;;59.13;;
78122;SDS011;67376;44.802;10.332;2023-06-22T06:29:06;102.47;;;58.78;;
78122;SDS011;67376;44.802;10.332;2023-06-22T06:31:32;102.43;;;58.67;;
78122;SDS011;67376;44.802;10.332;2023-06-22T06:33:58;102.18;;;58.58;;
78122;SDS011;67376;44.802;10.332;2023-06-22T06:36:23;102.47;;;58.80;;
78122;SDS011;67376;44.802;10.332;2023-06-22T06:38:49;102.40;;;58.45;;
78122;SDS011;67376;44.802;10.332;2023-06-22T06:41:15;102.53;;;58.83;;
78122;SDS011;67376;44.802;10.332;2023-06-22T06:43:41;102.80;;;59.08;;
78122;SDS011;67376;44.802;10.332;2023-06-22T06:46:09;102.93;;;59.15;;
78122;SDS011;67376;44.802;10.332;2023-06-22T06:48:35;103.38;;;59.20;;
78122;SDS011;67376;44.802;10.332;2023-06-22T06:51:00;103.55;;;59.92;;
78122;SDS011;67376;44.802;10.332;2023-06-22T06:53:26;103.72;;;59.92;;
78122;SDS011;67376;44.802;10.332;2023-06-22T06:55:52;103.78;;;59.58;;
78122;SDS011;67376;44.802;10.332;2023-06-22T06:58:17;103.78;;;59.97;;
78122;SDS011;67376;44.802;10.332;2023-06-22T07:00:43;103.60;;;59.67;;
78122;SDS011;67376;44.802;10.332;2023-06-22T07:03:08;103.93;;;59.85;;
78122;SDS011;67376;44.802;10.332;2023-06-22T07:05:34;104.13;;;59.67;;
78122;SDS011;67376;44.802;10.332;2023-06-22T07:08:00;104.18;;;59.70;;
78122;SDS011;67376;44.802;10.332;2023-06-22T07:10:26;103.85;;;59.17;;
78122;SDS011;67376;44.802;10.332;2023-06-22T07:12:51;104.40;;;59.75;;
78122;SDS011;67376;44.802;10.332;2023-06-22T07:15:17;104.38;;;59.67;;
78122;SDS011;67376;44.802;10.332;2023-06-22T07:17:43;104.45;;;59.67;;
78122;SDS011;67376;44.802;10.332;2023-06-22T07:20:10;104.65;;;59.63;;
78122;SDS011;67376;44.802;10.332;2023-06-22T07:22:40;104.75;;;59.58;;
78122;SDS011;67376;44.802;10.332;2023-06-22T07:25:07;104.95;;;60.03;;
78122;SDS011;67376;44.802;10.332;2023-06-22T07:27:39;105.07;;;60.05;;
78122;SDS011;67376;44.802;10.332;2023-06-22T07:30:08;105.80;;;60.67;;
78122;SDS011;67376;44.802;10.332;2023-06-22T07:32:35;105.22;;;59.90;;
78122;SDS011;67376;44.802;10.332;2023-06-22T07:35:00;105.68;;;60.15;;
78122;SDS011;67376;44.802;10.332;2023-06-22T07:37:27;105.65;;;60.38;;
78122;SDS011;67376;44.802;10.332;2023-06-22T07:39:53;105.35;;;59.97;;
78122;SDS011;67376;44.802;10.332;2023-06-22T07:42:23;105.68;;;59.97;;
78122;SDS011;67376;44.802;10.332;2023-06-22T07:44:48;106.03;;;60.55;;
78122;SDS011;67376;44.802;10.332;2023-06-22T07:47:16;106.22;;;60.65;;
78122;SDS011;67376;44.802;10.332;2023-06-22T07:49:43;106.03;;;60.40;;
78122;SDS011;67376;44.802;10.332;2023-06-22T07:52:08;105.75;;;60.08;;
78122;SDS011;67376;44.802;10.332;2023-06-22T07:54:33;106.30;;;60.85;;
78122;SDS011;67376;44.802;10.332;2023-06-22T07:56:59;106.32;;;60.55;;
78122;SDS011;67376;44.802;10.332;2023-06-22T07:59:25;105.97;;;60.20;;
78122;SDS011;67376;44.802;10.332;2023-06-22T08:01:50;105.70;;;59.80;;
78122;SDS011;67376;44.802;10.332;2023-06-22T08:04:15;105.97;;;59.97;;
78122;SDS011;67376;44.802;10.332;2023-06-22T08:06:41;106.40;;;60.42;;
78122;SDS011;67376;44.802;10.332;2023-06-22T08:09:07;106.78;;;60.85;;
78122;SDS011;67376;44.802;10.332;2023-06-22T08:11:32;106.20;;;60.47;;
78122;SDS011;67376;44.802;10.332;2023-06-22T08:13:57;105.68;;;59.92;;
78122;SDS011;67376;44.802;10.332;2023-06-22T08:16:23;106.57;;;60.83;;
78122;SDS011;67376;44.802;10.332;2023-06-22T08:18:49;106.30;;;60.65;;
78122;SDS011;67376;44.802;10.332;2023-06-22T08:21:14;106.15;;;60.22;;
78122;SDS011;67376;44.802;10.332;2023-06-22T08:23:39;105.72;;;59.83;;
78122;SDS011;67376;44.802;10.332;2023-06-22T08:26:05;106.35;;;60.72;;
78122;SDS011;67376;44.802;10.332;2023-06-22T08:28:30;106.32;;;60.58;;
78122;SDS011;67376;44.802;10.332;2023-06-22T08:30:56;106.93;;;60.83;;
78122;SDS011;67376;44.802;10.332;2023-06-22T08:33:21;106.90;;;60.63;;
78122;SDS011;67376;44.802;10.332;2023-06-22T08:35:53;106.03;;;60.35;;
78122;SDS011;67376;44.802;10.332;2023-06-22T08:38:20;105.93;;;60.15;;
78122;SDS011;67376;44.802;10.332;2023-06-22T08:40:45;106.88;;;60.83;;
78122;SDS011;67376;44.802;10.332;2023-06-22T08:43:10;106.53;;;60.58;;
78122;SDS011;67376;44.802;10.332;2023-06-22T08:45:36;106.20;;;60.17;;
78122;SDS011;67376;44.802;10.332;2023-06-22T08:48:01;105.78;;;59.58;;
78122;SDS011;67376;44.802;10.332;2023-06-22T08:50:27;105.97;;;60.53;;
78122;SDS011;67376;44.802;10.332;2023-06-22T08:52:52;106.50;;;60.60;;
78122;SDS011;67376;44.802;10.332;2023-06-22T08:55:18;105.95;;;60.17;;
78122;SDS011;67376;44.802;10.332;2023-06-22T08:57:43;106.32;;;60.67;;
78122;SDS011;67376;44.802;10.332;2023-06-22T09:00:09;106.18;;;60.35;;
78122;SDS011;67376;44.802;10.332;2023-06-22T09:02:45;106.53;;;60.58;;
78122;SDS011;67376;44.802;10.332;2023-06-22T09:05:12;105.85;;;59.97;;
78122;SDS011;67376;44.802;10.332;2023-06-22T09:07:37;106.35;;;60.50;;
78122;SDS011;67376;44.802;10.332;2023-06-22T09:10:03;106.18;;;60.58;;
78122;SDS011;67376;44.802;10.332;2023-06-22T09:12:32;106.65;;;61.05;;
78122;SDS011;67376;44.802;10.332;2023-06-22T09:14:58;106.25;;;60.65;;
78122;SDS011;67376;44.802;10.332;2023-06-22T09:17:28;106.15;;;60.70;;
78122;SDS011;67376;44.802;10.332;2023-06-22T09:19:53;105.00;;;59.45;;
78122;SDS011;67376;44.802;10.332;2023-06-22T09:22:19;105.72;;;60.55;;
78122;SDS011;67376;44.802;10.332;2023-06-22T09:24:44;106.32;;;61.15;;
78122;SDS011;67376;44.802;10.332;2023-06-22T09:27:10;106.13;;;60.80;;
78122;SDS011;67376;44.802;10.332;2023-06-22T09:29:35;105.65;;;60.30;;
78122;SDS011;67376;44.802;10.332;2023-06-22T09:32:00;105.38;;;60.33;;
78122;SDS011;67376;44.802;10.332;2023-06-22T09:34:26;106.00;;;60.85;;
78122;SDS011;67376;44.802;10.332;2023-06-22T09:36:52;105.07;;;60.20;;
78122;SDS011;67376;44.802;10.332;2023-06-22T09:39:20;104.95;;;60.10;;
78122;SDS011;67376;44.802;10.332;2023-06-22T09:41:45;105.28;;;60.38;;
78122;SDS011;67376;44.802;10.332;2023-06-22T09:44:11;105.65;;;60.65;;
78122;SDS011;67376;44.802;10.332;2023-06-22T09:46:36;105.95;;;60.95;;
78122;SDS011;67376;44.802;10.332;2023-06-22T09:49:01;104.93;;;59.67;;
78122;SDS011;67376;44.802;10.332;2023-06-22T09:51:27;105.15;;;60.20;;
78122;SDS011;67376;44.802;10.332;2023-06-22T09:53:52;105.05;;;60.45;;
78122;SDS011;67376;44.802;10.332;2023-06-22T09:56:21;105.07;;;60.13;;
78122;SDS011;67376;44.802;10.332;2023-06-22T09:58:46;104.85;;;59.72;;
78122;SDS011;67376;44.802;10.332;2023-06-22T10:01:12;105.63;;;60.70;;
78122;SDS011;67376;44.802;10.332;2023-06-22T10:03:41;105.63;;;60.40;;
78122;SDS011;67376;44.802;10.332;2023-06-22T10:06:06;105.13;;;60.22;;
78122;SDS011;67376;44.802;10.332;2023-06-22T10:08:32;105.05;;;60.05;;
78122;SDS011;67376;44.802;10.332;2023-06-22T10:10:58;105.25;;;60.35;;
78122;SDS011;67376;44.802;10.332;2023-06-22T10:13:24;104.97;;;59.95;;
78122;SDS011;67376;44.802;10.332;2023-06-22T10:15:49;105.65;;;61.00;;
78122;SDS011;67376;44.802;10.332;2023-06-22T10:18:16;104.82;;;59.75;;
78122;SDS011;67376;44.802;10.332;2023-06-22T10:20:42;104.72;;;59.70;;
78122;SDS011;67376;44.802;10.332;2023-06-22T10:23:08;105.53;;;60.78;;
78122;SDS011;67376;44.802;10.332;2023-06-22T10:25:33;104.90;;;60.10;;
78122;SDS011;67376;44.802;10.332;2023-06-22T10:27:59;105.07;;;60.28;;
78122;SDS011;67376;44.802;10.332;2023-06-22T10:30:24;105.03;;;60.28;;
78122;SDS011;67376;44.802;10.332;2023-06-22T10:32:50;104.82;;;60.33;;
78122;SDS011;67376;44.802;10.332;2023-06-22T10:35:15;104.93;;;60.28;;
78122;SDS011;67376;44.802;10.332;2023-06-22T10:37:44;104.70;;;59.85;;
78122;SDS011;67376;44.802;10.332;2023-06-22T10:40:11;105.07;;;60.60;;
78122;SDS011;67376;44.802;10.332;2023-06-22T10:42:37;105.18;;;60.80;;
78122;SDS011;67376;44.802;10.332;2023-06-22T10:45:03;104.68;;;60.00;;
78122;SDS011;67376;44.802;10.332;2023-06-22T10:47:29;105.00;;;60.30;;
78122;SDS011;67376;44.802;10.332;2023-06-22T10:49:54;104.68;;;60.10;;
78122;SDS011;67376;44.802;10.332;2023-06-22T10:52:20;104.70;;;60.10;;
78122;SDS011;67376;44.802;10.332;2023-06-22T10:54:45;104.53;;;59.95;;
78122;SDS011;67376;44.802;10.332;2023-06-22T10:57:10;105.28;;;60.75;;
78122;SDS011;67376;44.802;10.332;2023-06-22T10:59:36;105.05;;;60.53;;
78122;SDS011;67376;44.802;10.332;2023-06-22T11:02:01;105.15;;;60.83;;
78122;SDS011;67376;44.802;10.332;2023-06-22T11:04:27;104.68;;;60.38;;
78122;SDS011;67376;44.802;10.332;2023-06-22T11:06:52;104.38;;;59.85;;
78122;SDS011;67376;44.802;10.332;2023-06-22T11:09:18;104.60;;;60.28;;
78122;SDS011;67376;44.802;10.332;2023-06-22T11:11:46;104.40;;;60.08;;
78122;SDS011;67376;44.802;10.332;2023-06-22T11:14:12;104.70;;;60.28;;
78122;SDS011;67376;44.802;10.332;2023-06-22T11:16:37;105.05;;;60.60;;
78122;SDS011;67376;44.802;10.332;2023-06-22T11:19:04;104.78;;;60.28;;
78122;SDS011;67376;44.802;10.332;2023-06-22T11:21:30;104.53;;;60.20;;
78122;SDS011;67376;44.802;10.332;2023-06-22T11:23:56;104.47;;;60.05;;
78122;SDS011;67376;44.802;10.332;2023-06-22T11:26:21;104.00;;;59.38;;
78122;SDS011;67376;44.802;10.332;2023-06-22T11:28:47;104.30;;;60.03;;
78122;SDS011;67376;44.802;10.332;2023-06-22T11:31:12;104.40;;;60.25;;
78122;SDS011;67376;44.802;10.332;2023-06-22T11:33:37;103.97;;;59.70;;
78122;SDS011;67376;44.802;10.332;2023-06-22T11:36:03;104.45;;;60.00;;
78122;SDS011;67376;44.802;10.332;2023-06-22T11:38:28;104.55;;;60.47;;
78122;SDS011;67376;44.802;10.332;2023-06-22T11:40:55;104.45;;;60.40;;
78122;SDS011;67376;44.802;10.332;2023-06-22T11:43:21;104.20;;;60.42;;
78122;SDS011;67376;44.802;10.332;2023-06-22T11:45:46;104.30;;;60.30;;
78122;SDS011;67376;44.802;10.332;2023-06-22T11:48:12;104.13;;;60.17;;
78122;SDS011;67376;44.802;10.332;2023-06-22T11:50:37;103.80;;;59.95;;
78122;SDS011;67376;44.802;10.332;2023-06-22T11:53:02;103.90;;;59.70;;
78122;SDS011;67376;44.802;10.332;2023-06-22T11:55:28;104.15;;;60.17;;
78122;SDS011;67376;44.802;10.332;2023-06-22T11:57:55;104.18;;;60.33;;
78122;SDS011;67376;44.802;10.332;2023-06-22T12:00:23;104.28;;;60.28;;
78122;SDS011;67376;44.802;10.332;2023-06-22T12:02:49;104.45;;;60.78;;
78122;SDS011;67376;44.802;10.332;2023-06-22T12:05:17;104.22;;;60.20;;
78122;SDS011;67376;44.802;10.332;2023-06-22T12:07:44;104.18;;;60.13;;
78122;SDS011;67376;44.802;10.332;2023-06-22T12:10:09;104.40;;;60.15;;
78122;SDS011;67376;44.802;10.332;2023-06-22T12:12:35;104.05;;;60.05;;
78122;SDS011;67376;44.802;10.332;2023-06-22T12:15:00;104.13;;;60.33;;
78122;SDS011;67376;44.802;10.332;2023-06-22T12:17:28;104.57;;;60.88;;
78122;SDS011;67376;44.802;10.332;2023-06-22T12:19:54;104.07;;;60.10;;
78122;SDS011;67376;44.802;10.332;2023-06-22T12:22:19;104.15;;;60.65;;
78122;SDS011;67376;44.802;10.332;2023-06-22T12:24:45;104.07;;;60.35;;
78122;SDS011;67376;44.802;10.332;2023-06-22T12:27:10;104.28;;;60.78;;
78122;SDS011;67376;44.802;10.332;2023-06-22T12:29:35;104.00;;;60.50;;
78122;SDS011;67376;44.802;10.332;2023-06-22T12:32:01;104.40;;;60.55;;
78122;SDS011;67376;44.802;10.332;2023-06-22T12:34:26;103.40;;;59.70;;
78122;SDS011;67376;44.802;10.332;2023-06-22T12:36:51;104.15;;;60.35;;
78122;SDS011;67376;44.802;10.332;2023-06-22T12:39:19;104.28;;;60.58;;
78122;SDS011;67376;44.802;10.332;2023-06-22T12:41:45;103.43;;;59.53;;
78122;SDS011;67376;44.802;10.332;2023-06-22T12:44:10;103.72;;;60.05;;
78122;SDS011;67376;44.802;10.332;2023-06-22T12:46:35;103.57;;;60.00;;
78122;SDS011;67376;44.802;10.332;2023-06-22T12:49:03;103.85;;;60.13;;
78122;SDS011;67376;44.802;10.332;2023-06-22T12:51:29;103.55;;;59.88;;
78122;SDS011;67376;44.802;10.332;2023-06-22T12:53:55;103.70;;;60.33;;
78122;SDS011;67376;44.802;10.332;2023-06-22T12:56:21;103.68;;;60.28;;
78122;SDS011;67376;44.802;10.332;2023-06-22T12:58:47;103.30;;;59.95;;
78122;SDS011;67376;44.802;10.332;2023-06-22T13:01:12;102.97;;;59.83;;
78122;SDS011;67376;44.802;10.332;2023-06-22T13:03:38;103.07;;;59.75;;
78122;SDS011;67376;44.802;10.332;2023-06-22T13:06:03;103.38;;;60.42;;
78122;SDS011;67376;44.802;10.332;2023-06-22T13:08:29;103.25;;;60.25;;
78122;SDS011;67376;44.802;10.332;2023-06-22T13:10:54;102.63;;;59.58;;
78122;SDS011;67376;44.802;10.332;2023-06-22T13:13:23;102.80;;;59.80;;
78122;SDS011;67376;44.802;10.332;2023-06-22T13:15:50;102.63;;;59.45;;
78122;SDS011;67376;44.802;10.332;2023-06-22T13:18:15;102.78;;;59.97;;
78122;SDS011;67376;44.802;10.332;2023-06-22T13:20:41;103.53;;;61.10;;
78122;SDS011;67376;44.802;10.332;2023-06-22T13:23:06;102.38;;;59.22;;
78122;SDS011;67376;44.802;10.332;2023-06-22T13:25:32;102.68;;;59.70;;
78122;SDS011;67376;44.802;10.332;2023-06-22T13:27:57;102.72;;;59.90;;
78122;SDS011;67376;44.802;10.332;2023-06-22T13:30:22;102.40;;;59.47;;
78122;SDS011;67376;44.802;10.332;2023-06-22T13:32:48;102.47;;;59.35;;
78122;SDS011;67376;44.802;10.332;2023-06-22T13:35:13;102.63;;;59.70;;
78122;SDS011;67376;44.802;10.332;2023-06-22T13:37:39;102.25;;;59.10;;
78122;SDS011;67376;44.802;10.332;2023-06-22T13:40:05;102.57;;;59.92;;
78122;SDS011;67376;44.802;10.332;2023-06-22T13:42:32;102.10;;;59.10;;
78122;SDS011;67376;44.802;10.332;2023-06-22T13:44:57;101.93;;;58.95;;
78122;SDS011;67376;44.802;10.332;2023-06-22T13:47:23;102.53;;;59.95;;
78122;SDS011;67376;44.802;10.332;2023-06-22T13:49:48;102.25;;;59.40;;
78122;SDS011;67376;44.802;10.332;2023-06-22T13:52:14;103.10;;;60.42;;
78122;SDS011;67376;44.802;10.332;2023-06-22T13:54:39;102.03;;;59.60;;
78122;SDS011;67376;44.802;10.332;2023-06-22T13:57:05;101.65;;;58.83;;
78122;SDS011;67376;44.802;10.332;2023-06-22T13:59:30;102.40;;;59.80;;
78122;SDS011;67376;44.802;10.332;2023-06-22T14:01:56;102.28;;;59.63;;
78122;SDS011;67376;44.802;10.332;2023-06-22T14:04:23;102.10;;;59.40;;
78122;SDS011;67376;44.802;10.332;2023-06-22T14:06:48;101.47;;;59.00;;